Terminal Aerodrome Forecast
Issued by NWS Portland, OR

Home | Current Version | Previous Version | Text Only | Print | Product List | Glossary On
Versions: 1 2 3 4 5 6 7 8 9 10 11 12 13 14 15 16 17 18
077
FTUS46 KPQR 221539 AAA
TAFEUG
TAF AMD
KEUG 221539Z 2216/2312 23006KT P6SM OVC014
      TEMPO 2216/2219 -SHRA
     FM221900 23006KT P6SM SCT015 BKN025
     FM222200 24007KT P6SM SCT025 BKN100
     FM230600 23005KT P6SM OVC025=

USA.gov is the U.S. government's official web portal to all federal, state and local government web resources and services.